KMJX/MJX METAR and TAF weather

Enter ICAO airport designator
Station Type Date Time Source
KMJX METAR 2021/05/14 13:56 UTC NOAA

KMJX 141356Z AUTO 04004KT 10SM CLR 19/04 A3025 RMK AO2 SLP248 T01940039


Station Type Date Time Source
KMJX Decoded METAR 2021/05/14 13:56 UTC NOAA

Station name not available
May 14, 2021 - 09:56 AM EDT / 2021.05.14 1356 UTC
Wind: from the NE (040 degrees) at 5 MPH (4 KT):0
Visibility: 10 mile(s):0
Sky conditions: clear
Temperature: 66.9 F (19.4 C)
Dew Point: 39.0 F (3.9 C)
Relative Humidity: 35%
Pressure (altimeter): 30.25 in. Hg (1024 hPa)
ob: KMJX 141356Z AUTO 04004KT 10SM CLR 19/04 A3025 RMK AO2 SLP248 T01940039
cycle: 14

Station Type Date Time Source
KMJX TAF UTC NOAA

Error!

Example: see airport list